Latest Weather Observations for Robe Airport

IDS60801

Issued at 3:35 pm CST Monday 22 September 2014 (issued every 30 minutes, with the page automatically refreshed every 10 minutes)

About weather observations | Map of weather stations | Latest weather observations for SA | Other Formats
Station Details ID: 026105 Name: ROBE AIRFIELD Lat: -37.18 Lon: 139.81 Height: 3.0 m
Data from the previous 72 hours. | See also: Recent months at Robe Airport
Date/Time
CST
Temp
°C
App
Temp
°C
Dew
Point
Rel
Hum
%
Delta-T
°C
Wind Press
QNH
hPa
Press
MSL
hPa
Rain
since 9 am
mm
Dir
 
Spd
km/h
Gust
km/h
Spd
kts
Gust
kts
22/03:30pm 21.6 17.6 4.7 33 8.2 NW 15 19 8 10 1023.0 1023.0 0.0
22/03:00pm 21.7 17.3 4.7 33 8.3 NW 17 20 9 11 1023.1 1023.1 0.0
22/02:30pm 21.9 18.0 7.3 39 7.5 NW 17 24 9 13 1023.3 1023.3 0.0
22/02:00pm 21.8 18.0 7.6 40 7.4 NW 17 24 9 13 1023.4 1023.4 0.0
22/01:30pm 22.5 17.5 3.6 29 9.1 NW 19 26 10 14 1023.7 1023.7 0.0
22/01:00pm 22.1 16.4 2.8 28 9.2 NNW 22 32 12 17 1024.1 1024.1 0.0
22/12:30pm 21.9 15.2 1.6 26 9.3 NNW 26 33 14 18 1024.5 1024.5 0.0
22/12:00pm 22.0 15.9 2.7 28 9.1 N 24 35 13 19 1024.8 1024.8 0.0
22/11:30am 21.5 15.6 3.7 31 8.5 N 24 35 13 19 1025.2 1025.2 0.0
22/11:00am 21.0 14.8 4.1 33 8.2 N 26 35 14 19 1025.7 1025.7 0.0
22/10:30am 19.8 13.5 3.9 35 7.5 N 26 35 14 19 1026.0 1026.0 0.0
22/10:00am 19.1 14.0 6.2 43 6.4 N 22 30 12 16 1026.4 1026.4 0.0
22/09:30am 17.8 12.6 5.7 45 5.9 N 22 28 12 15 1026.7 1026.7 0.0
22/09:00am 16.6 13.5 7.3 54 4.6 N 13 20 7 11 1026.7 1026.7 0.0
22/08:30am 13.7 10.1 6.8 63 3.3 N 15 20 8 11 1026.9 1026.9 0.0
22/08:00am 11.6 8.0 6.7 72 2.3 NNE 15 22 8 12 1026.9 1026.9 0.0
22/07:30am 9.6 5.1 6.0 78 1.6 NNE 19 24 10 13 1026.6 1026.6 0.0
22/07:00am 7.6 4.0 5.2 85 1.1 NE 13 19 7 10 1026.7 1026.7 0.0
22/06:30am 6.1 2.3 4.1 87 0.8 NE 13 17 7 9 1026.7 1026.7 0.0
22/06:00am 6.2 2.1 4.2 87 0.8 NE 15 20 8 11 1026.5 1026.5 0.0
22/05:30am 6.3 2.2 4.5 88 0.8 NE 15 19 8 10 1026.2 1026.2 0.0
22/05:00am 5.9 1.8 4.5 91 0.6 NE 15 17 8 9 1026.2 1026.2 0.0
22/04:30am 4.3 0.8 3.4 94 0.4 NE 11 13 6 7 1026.2 1026.2 0.0
22/04:00am 4.2 1.5 3.5 95 0.3 NE 7 9 4 5 1026.3 1026.3 0.0
22/03:30am 3.8 0.6 3.1 95 0.3 NE 9 11 5 6 1026.3 1026.3 0.0
22/03:00am 3.6 0.3 2.7 94 0.4 ENE 9 11 5 6 1026.4 1026.4 0.0
22/02:30am 4.0 1.2 3.1 94 0.4 ENE 7 9 4 5 1026.6 1026.6 0.0
22/02:00am 4.6 2.1 3.7 94 0.4 ENE 6 9 3 5 1027.1 1027.1 0.0
22/01:30am 4.9 2.8 4.0 94 0.4 ENE 4 6 2 3 1027.2 1027.2 0.0
22/01:00am 5.4 3.4 4.4 93 0.4 ENE 4 7 2 4 1027.3 1027.3 0.0
22/12:30am 5.9 4.4 4.9 93 0.4 E 2 9 1 5 1027.3 1027.3 0.0
22/12:00am 6.2 5.1 5.2 93 0.4 ENE 0 2 0 1 1027.4 1027.4 0.0
 
Date/Time
CST
Temp
°C
App
Temp
°C
Dew
Point
Rel
Hum
%
Delta-T
°C
Wind Press
QNH
hPa
Press
MSL
hPa
Rain
since 9 am
mm
Dir
 
Spd
km/h
Gust
km/h
Spd
kts
Gust
kts
21/11:30pm 6.3 4.8 5.1 92 0.5 E 2 4 1 2 1027.5 1027.5 0.0
21/11:00pm 6.1 4.2 4.9 92 0.5 E 4 6 2 3 1027.9 1027.9 0.0
21/10:30pm 6.0 3.7 4.8 92 0.5 SE 6 9 3 5 1028.1 1028.1 0.0
21/10:00pm 5.8 3.8 4.4 91 0.6 SE 4 6 2 3 1028.3 1028.3 0.0
21/09:30pm 6.0 4.0 4.3 89 0.7 SE 4 4 2 2 1028.6 1028.6 0.0
21/09:00pm 6.5 4.1 4.3 86 0.9 SE 6 6 3 3 1028.9 1028.9 0.0
21/08:30pm 8.1 6.1 6.1 87 0.9 SE 6 7 3 4 1028.9 1028.9 0.0
21/08:00pm 8.2 6.0 6.2 87 0.9 SSE 7 9 4 5 1029.0 1029.0 0.0
21/07:30pm 8.4 6.4 6.2 86 1.0 SSE 6 6 3 3 1029.0 1029.0 0.0
21/07:00pm 9.4 6.8 5.9 79 1.6 S 9 11 5 6 1028.9 1028.9 0.0
21/06:30pm 10.5 7.9 6.3 75 1.9 S 9 11 5 6 1028.8 1028.8 0.0
21/06:00pm 12.0 9.5 6.7 70 2.5 S 9 11 5 6 1028.6 1028.6 0.0
21/05:30pm 13.8 11.1 7.3 65 3.2 S 11 13 6 7 1028.7 1028.7 0.0
21/05:00pm 14.7 11.3 7.5 62 3.6 S 15 19 8 10 1028.6 1028.6 0.0
21/04:30pm 15.6 12.3 7.9 60 3.8 S 15 20 8 11 1028.6 1028.6 0.0
21/04:00pm 15.7 11.6 8.0 60 3.9 S 19 24 10 13 1028.5 1028.5 0.0
21/03:30pm 17.1 14.2 8.3 56 4.5 SSW 13 17 7 9 1028.4 1028.4 0.0
21/03:00pm 17.2 15.4 7.8 54 4.7 SSE 7 17 4 9 1028.8 1028.8 0.0
21/02:30pm 16.9 14.8 8.1 56 4.4 S 9 15 5 8 1028.9 1028.9 0.0
21/02:00pm 16.9 14.9 8.6 58 4.3 S 9 15 5 8 1029.3 1029.3 0.0
21/01:30pm 16.4 14.3 8.4 59 4.0 S 9 15 5 8 1029.9 1029.9 0.0
21/01:00pm 16.6 14.8 9.3 62 3.8 SSW 9 13 5 7 1030.3 1030.3 0.0
21/12:30pm 16.6 15.3 9.1 61 3.8 SSW 6 9 3 5 1030.9 1030.9 0.0
21/12:00pm 16.0 14.0 8.5 61 3.8 SSW 9 15 5 8 1031.2 1031.2 0.0
21/11:30am 15.3 13.2 8.3 63 3.5 S 9 15 5 8 1031.5 1031.5 0.0
21/11:00am 15.9 14.6 7.7 58 4.1 NNW 4 9 2 5 1031.7 1031.7 0.0
21/10:30am 15.8 13.9 7.6 58 4.1 NW 7 11 4 6 1032.0 1032.0 0.0
21/10:00am 15.3 13.8 8.3 63 3.5 NE 6 13 3 7 1032.2 1032.2 0.0
21/09:30am 13.7 11.8 7.5 66 3.0 NNE 7 11 4 6 1032.5 1032.5 0.0
21/09:00am 12.3 10.3 7.0 70 2.5 NNE 7 11 4 6 1032.4 1032.4 0.0
21/08:30am 10.9 8.7 6.1 72 2.2 NE 7 13 4 7 1032.1 1032.1 0.0
21/08:00am 9.1 5.7 5.8 80 1.5 NE 13 19 7 10 1031.8 1031.8 0.0
21/07:30am 7.4 5.7 5.7 89 0.8 ENE 4 6 2 3 1031.6 1031.6 0.0
21/07:00am 4.2 2.4 3.5 95 0.3 E 2 7 1 4 1031.4 1031.4 0.0
21/06:30am 1.4 -0.6 0.2 92 0.4 CALM 0 0 0 0 1031.2 1031.2 0.0
21/06:00am 2.7 0.2 1.8 94 0.3 E 4 4 2 2 1031.0 1031.0 0.0
21/05:30am 2.6 0.1 1.3 91 0.5 E 4 4 2 2 1030.7 1030.7 0.0
21/05:00am 3.8 1.1 2.5 91 0.5 E 6 7 3 4 1030.2 1030.2 0.0
21/04:30am 3.5 1.1 2.0 90 0.6 ESE 4 7 2 4 1029.9 1029.9 0.0
21/04:00am 4.1 1.4 2.8 91 0.5 SE 6 6 3 3 1030.0 1030.0 0.0
21/03:30am 4.4 1.8 3.1 91 0.5 SE 6 9 3 5 1030.1 1030.1 0.0
21/03:00am 4.8 2.1 3.5 91 0.5 SSE 7 9 4 5 1030.2 1030.2 0.0
21/02:30am 5.1 2.1 3.9 92 0.5 SSE 9 11 5 6 1030.2 1030.2 0.0
21/02:00am 4.2 1.5 2.7 90 0.6 SSE 6 7 3 4 1030.0 1030.0 0.0
21/01:30am 4.2 1.8 2.4 88 0.7 SSE 4 4 2 2 1030.0 1030.0 0.0
21/01:00am 5.1 2.5 3.3 88 0.7 SSE 6 7 3 4 1030.3 1030.3 0.0
21/12:30am 5.7 3.5 3.2 84 1.0 E 4 6 2 3 1030.3 1030.3 0.0
21/12:00am 6.5 3.5 4.2 85 1.0 E 9 13 5 7 1030.2 1030.2 0.0
 
Date/Time
CST
Temp
°C
App
Temp
°C
Dew
Point
Rel
Hum
%
Delta-T
°C
Wind Press
QNH
hPa
Press
MSL
hPa
Rain
since 9 am
mm
Dir
 
Spd
km/h
Gust
km/h
Spd
kts
Gust
kts
20/11:30pm 6.6 4.0 4.1 84 1.1 SE 7 9 4 5 1030.2 1030.2 0.0
20/11:00pm 6.7 4.1 4.0 83 1.2 SSE 7 11 4 6 1030.4 1030.4 0.0
20/10:30pm 7.2 4.7 4.5 83 1.2 ESE 7 11 4 6 1030.3 1030.3 0.0
20/10:00pm 7.5 5.0 4.8 83 1.2 SE 7 11 4 6 1030.3 1030.3 0.0
20/09:30pm 8.4 6.3 5.9 84 1.1 SE 6 9 3 5 1030.5 1030.5 0.0
20/09:00pm 8.9 6.2 5.8 81 1.4 SSE 9 11 5 6 1030.4 1030.4 0.0
20/08:30pm 9.4 6.4 5.9 79 1.6 SE 11 15 6 8 1030.1 1030.1 0.0
20/08:00pm 10.2 7.3 6.4 77 1.8 SE 11 19 6 10 1030.2 1030.2 0.0
20/07:30pm 10.0 7.0 6.0 76 1.8 SE 11 15 6 8 1030.1 1030.1 0.0
20/07:00pm 11.2 7.5 6.3 72 2.3 SE 15 22 8 12 1029.8 1029.8 0.0
20/06:30pm 11.5 8.2 6.2 70 2.5 SE 13 22 7 12 1029.6 1029.6 0.0
20/06:00pm 11.9 7.8 6.2 68 2.7 SE 17 22 9 12 1029.2 1029.2 0.0
20/05:30pm 13.2 9.1 6.3 63 3.3 SSE 17 26 9 14 1029.1 1029.1 0.0
20/05:00pm 14.0 10.1 7.1 63 3.4 SSE 17 22 9 12 1028.9 1028.9 0.0
20/04:30pm 14.3 9.0 6.6 60 3.7 S 24 32 13 17 1028.6 1028.6 0.0
20/04:00pm 15.3 10.7 6.6 56 4.2 S 20 30 11 16 1028.3 1028.3 0.0
20/03:30pm 15.8 11.3 6.8 55 4.4 S 20 28 11 15 1028.0 1028.0 0.0
20/03:00pm 15.9 11.6 6.9 55 4.4 S 19 28 10 15 1027.9 1027.9 0.0
20/02:30pm 16.1 12.1 8.1 59 4.0 S 19 26 10 14 1027.8 1027.8 0.0
20/02:00pm 16.1 12.1 8.1 59 4.0 S 19 26 10 14 1027.8 1027.8 0.0
20/01:30pm 16.5 13.2 8.0 57 4.3 SSW 15 22 8 12 1028.0 1028.0 0.0
20/01:00pm 15.6 13.1 8.1 61 3.8 SSW 11 19 6 10 1028.1 1028.1 0.0
20/12:30pm 15.4 13.2 6.2 54 4.4 S 7 13 4 7 1028.2 1028.2 0.0
20/12:00pm 16.5 14.8 5.8 49 5.1 ESE 4 7 2 4 1028.3 1028.3 0.0
20/11:30am 16.2 14.1 6.6 53 4.7 ESE 7 15 4 8 1028.3 1028.3 0.0
20/11:00am 16.1 13.7 6.8 54 4.6 NE 9 15 5 8 1028.4 1028.4 0.0
20/10:30am 15.5 13.0 6.5 55 4.3 ENE 9 15 5 8 1028.7 1028.7 0.0
20/10:00am 14.6 10.5 6.2 57 4.0 NE 17 22 9 12 1028.8 1028.8 0.0
20/09:30am 13.7 10.3 7.7 67 2.9 NE 15 20 8 11 1029.1 1029.1 0.0
20/09:00am 12.5 9.6 8.2 75 2.1 ENE 13 19 7 10 1029.3 1029.3 0.0
20/08:30am 11.5 9.0 8.0 79 1.7 ENE 11 19 6 10 1029.2 1029.2 0.0
20/08:00am 9.7 6.9 7.1 84 1.2 E 11 19 6 10 1029.1 1029.1 0.0
20/07:30am 8.3 5.9 6.8 90 0.7 E 9 13 5 7 1028.8 1028.8 0.0
20/07:00am 6.2 3.8 5.3 94 0.4 E 7 11 4 6 1028.2 1028.2 0.0
20/06:30am 3.8 1.6 3.1 95 0.3 ENE 4 7 2 4 1027.9 1027.9 0.0
20/06:00am 4.0 1.2 3.3 95 0.3 E 7 9 4 5 1027.4 1027.4 0.0
20/05:30am 3.7 0.8 2.8 94 0.4 E 7 9 4 5 1027.1 1027.1 0.0
20/05:00am 3.8 1.1 2.8 93 0.4 E 6 9 3 5 1026.8 1026.8 0.0
20/04:30am 4.3 2.1 3.4 94 0.4 ESE 4 6 2 3 1026.5 1026.5 0.0
20/04:00am 4.0 1.2 3.0 93 0.4 ESE 7 9 4 5 1026.1 1026.1 0.0
20/03:30am 4.2 1.4 3.2 93 0.4 ESE 7 9 4 5 1026.1 1026.1 0.0
20/03:00am 4.2 1.4 3.2 93 0.4 ESE 7 7 4 4 1026.1 1026.1 0.0
20/02:30am 4.3 1.7 3.1 92 0.5 ESE 6 7 3 4 1025.9 1025.9 0.0
20/02:00am 4.4 1.6 3.1 91 0.5 ESE 7 9 4 5 1025.9 1025.9 0.0
20/01:30am 4.5 1.9 3.0 90 0.6 ESE 6 7 3 4 1025.9 1025.9 0.0
20/01:00am 4.5 1.6 2.7 88 0.7 E 7 9 4 5 1026.1 1026.1 0.0
20/12:30am 5.3 2.6 3.5 88 0.7 E 7 11 4 6 1026.0 1026.0 0.0
20/12:00am 5.9 3.2 3.9 87 0.8 E 7 9 4 5 1026.1 1026.1 0.0
 
Date/Time
CST
Temp
°C
App
Temp
°C
Dew
Point
Rel
Hum
%
Delta-T
°C
Wind Press
QNH
hPa
Press
MSL
hPa
Rain
since 9 am
mm
Dir
 
Spd
km/h
Gust
km/h
Spd
kts
Gust
kts
19/11:30pm 6.8 3.5 4.3 84 1.1 E 11 15 6 8 1026.0 1026.0 0.0
19/11:00pm 7.2 3.5 4.7 84 1.1 E 13 19 7 10 1026.2 1026.2 0.0
19/10:30pm 7.2 4.3 4.9 85 1.0 E 9 13 5 7 1026.4 1026.4 0.0
19/10:00pm 6.6 3.6 4.3 85 1.0 ESE 9 11 5 6 1026.5 1026.5 0.0
19/09:30pm 6.5 3.5 4.0 84 1.1 ESE 9 11 5 6 1026.6 1026.6 0.0
19/09:00pm 6.8 4.1 3.6 80 1.3 ESE 7 9 4 5 1026.6 1026.6 0.0
19/08:30pm 7.2 4.6 4.2 81 1.3 ESE 7 9 4 5 1026.6 1026.6 0.0
19/08:00pm 7.9 5.4 4.8 81 1.4 SE 7 9 4 5 1026.5 1026.5 0.0
19/07:30pm 9.1 6.3 5.1 76 1.8 SSE 9 13 5 7 1026.5 1026.5 0.0
19/07:00pm 9.3 6.6 5.5 77 1.7 SSE 9 13 5 7 1026.4 1026.4 0.0
19/06:30pm 9.0 6.5 5.0 76 1.8 SSE 7 9 4 5 1026.1 1026.1 0.0
19/06:00pm 10.6 8.3 5.6 71 2.3 S 7 9 4 5 1026.1 1026.1 0.0
19/05:30pm 12.4 9.2 5.3 62 3.3 S 11 15 6 8 1025.9 1025.9 0.0
19/05:00pm 13.4 10.4 6.0 61 3.5 S 11 17 6 9 1025.7 1025.7 0.0
19/04:30pm 13.8 10.6 4.9 55 4.1 SSW 11 15 6 8 1025.5 1025.5 0.0
19/04:00pm 13.3 10.1 5.0 57 3.8 SSW 11 19 6 10 1025.5 1025.5 0.0

Other Formats:

Comma delimited format used in spreadsheet applications
http://www.bom.gov.au/fwo/IDS60801/IDS60801.95816.axf

JavaScript Object Notation format (JSON) in row-major order
http://www.bom.gov.au/fwo/IDS60801/IDS60801.95816.json